MSQ weather

Minsk National Airport
Minsk, Minsk Voblast, Belarus

Public forecast

Using degrees Celsius for public forecast. Weather courtesy of forecast.io.

Current aviation weather report (METAR) for Minsk National Airport

Retrieved 2019/10/16 11:30 UTC (0 seconds ago):

UMMS 161130Z 18007G10MPS CAVOK 21/07 Q1013 R88/D NOSIG

Aviation forecast (TAF) for Minsk National Airport

Retrieved 2019/10/16 06:21 UTC (5 hours ago):

TAF UMMS 160503Z 1606/1706 13005G10MPS CAVOK TEMPO 1606/1616 17008G13MPS BECMG 1616/1618 21005MPS 9999 SCT020 TEMPO 1700/1706 -RA BKN010